createdAt,value
2022-08-27T00:01:51.987Z,101343.19
2022-08-27T00:06:53.678Z,101347.66
2022-08-27T00:11:58.515Z,101361.16
2022-08-27T00:17:00.086Z,101355.28
2022-08-27T00:22:01.667Z,101350.56
2022-08-27T00:27:04.452Z,101348.03
2022-08-27T00:32:08.963Z,101339.91
2022-08-27T00:37:11.058Z,101347.34
2022-08-27T00:42:12.640Z,101345.28
2022-08-27T00:47:19.912Z,101345.81
2022-08-27T00:52:32.425Z,101341.50
2022-08-27T00:57:35.854Z,101350.84
2022-08-27T01:02:38.842Z,101352.56
2022-08-27T01:07:42.958Z,101354.94
2022-08-27T01:12:44.809Z,101354.16
2022-08-27T01:17:57.100Z,101359.41
2022-08-27T01:23:22.351Z,101360.06
2022-08-27T01:28:26.850Z,101364.34
2022-08-27T01:33:37.958Z,101370.31
2022-08-27T01:38:39.481Z,101375.88
2022-08-27T01:43:40.980Z,101370.47
2022-08-27T01:48:42.485Z,101364.84
2022-08-27T01:53:44.226Z,101370.25
2022-08-27T01:58:45.801Z,101362.66
2022-08-27T02:03:48.324Z,101360.09
2022-08-27T02:08:50.534Z,101358.72
2022-08-27T02:13:52.365Z,101357.78
2022-08-27T02:18:54.556Z,101360.28
2022-08-27T02:23:57.681Z,101339.94
2022-08-27T02:28:59.258Z,101337.97
2022-08-27T02:34:01.062Z,101337.97
2022-08-27T02:39:03.282Z,101344.13
2022-08-27T02:44:10.104Z,101344.03
2022-08-27T02:49:13.284Z,101345.53
2022-08-27T02:54:14.810Z,101352.47
2022-08-27T02:59:16.843Z,101372.19
2022-08-27T03:04:19.858Z,101365.50
2022-08-27T03:09:21.630Z,101361.13
2022-08-27T03:14:23.163Z,101358.03
2022-08-27T03:19:25.470Z,101357.59
2022-08-27T03:24:26.995Z,101360.53
2022-08-27T03:29:31.014Z,101362.25
2022-08-27T03:34:37.013Z,101357.53
2022-08-27T03:39:38.549Z,101362.25
2022-08-27T03:44:40.157Z,101361.41
2022-08-27T03:49:41.731Z,101367.25
2022-08-27T03:54:43.330Z,101366.66
2022-08-27T03:59:44.989Z,101365.19
2022-08-27T04:04:46.491Z,101361.66
2022-08-27T04:09:48.002Z,101369.59
2022-08-27T04:14:49.630Z,101369.91
2022-08-27T04:19:52.553Z,101375.59
2022-08-27T04:24:55.417Z,101370.28
2022-08-27T04:29:59.560Z,101375.72
2022-08-27T04:35:01.352Z,101373.16
2022-08-27T04:40:03.732Z,101366.31
2022-08-27T04:45:05.856Z,101373.44
2022-08-27T04:50:07.648Z,101373.69
2022-08-27T04:55:10.085Z,101376.91
2022-08-27T05:00:12.537Z,101373.38
2022-08-27T05:05:16.027Z,101370.50
2022-08-27T05:10:17.993Z,101367.69
2022-08-27T05:15:19.496Z,101375.78
2022-08-27T05:20:21.010Z,101375.00
2022-08-27T05:25:24.237Z,101384.66
2022-08-27T05:30:25.708Z,101390.59
2022-08-27T05:35:27.252Z,101395.91
2022-08-27T05:40:28.835Z,101398.72
2022-08-27T05:45:30.375Z,101397.13
2022-08-27T05:50:31.901Z,101403.78
2022-08-27T05:55:39.152Z,101395.97
2022-08-27T06:01:02.535Z,101405.56
2022-08-27T06:06:11.061Z,101404.63
2022-08-27T06:11:12.593Z,101406.13
2022-08-27T06:16:16.900Z,101410.47
2022-08-27T06:21:24.239Z,101407.94
2022-08-27T06:26:27.158Z,101408.25
2022-08-27T06:31:28.787Z,101401.53
2022-08-27T06:36:30.865Z,101399.50
2022-08-27T06:41:34.077Z,101415.59
2022-08-27T06:46:37.185Z,101417.28
2022-08-27T06:51:39.566Z,101419.56
2022-08-27T06:56:42.376Z,101419.28
2022-08-27T07:01:46.820Z,101418.97
2022-08-27T07:06:49.123Z,101418.19
2022-08-27T07:11:50.934Z,101422.19
2022-08-27T07:16:52.559Z,101418.34
2022-08-27T07:21:54.717Z,101423.47
2022-08-27T07:26:56.321Z,101423.63
2022-08-27T07:31:57.875Z,101428.34
2022-08-27T07:36:59.433Z,101428.53
2022-08-27T07:42:19.392Z,101438.09
2022-08-27T07:47:20.909Z,101437.44
2022-08-27T07:52:26.300Z,101442.94
2022-08-27T07:57:28.177Z,101449.28
2022-08-27T08:02:30.817Z,101458.16
2022-08-27T08:07:34.354Z,101464.94
2022-08-27T08:12:37.299Z,101471.78
2022-08-27T08:17:39.268Z,101474.50
2022-08-27T08:22:40.813Z,101477.19
2022-08-27T08:27:42.510Z,101478.44
2022-08-27T08:32:44.122Z,101473.28
2022-08-27T08:37:46.173Z,101485.53
2022-08-27T08:42:53.008Z,101490.38
2022-08-27T08:48:04.889Z,101493.31
2022-08-27T08:53:19.979Z,101489.00
2022-08-27T08:58:48.017Z,101496.88
2022-08-27T09:03:59.258Z,101491.81
2022-08-27T09:09:31.639Z,101488.13
2022-08-27T09:14:41.551Z,101484.16
2022-08-27T09:19:47.809Z,101482.81
2022-08-27T09:25:25.544Z,101489.41
2022-08-27T09:30:31.031Z,101488.94
2022-08-27T09:35:46.150Z,101488.63
2022-08-27T09:40:51.073Z,101490.19
2022-08-27T09:45:56.662Z,101484.09
2022-08-27T09:51:02.711Z,101488.84
2022-08-27T09:56:07.805Z,101479.22
2022-08-27T10:01:29.454Z,101473.09
2022-08-27T10:06:31.897Z,101476.75
2022-08-27T10:11:44.015Z,101474.91
2022-08-27T10:17:19.799Z,101471.69
2022-08-27T10:22:32.654Z,101470.38
2022-08-27T10:28:01.913Z,101461.69
2022-08-27T10:33:19.240Z,101467.78
2022-08-27T10:38:42.375Z,101465.47
2022-08-27T10:43:52.069Z,101460.28
2022-08-27T10:49:21.587Z,101456.09
2022-08-27T10:54:39.855Z,101459.81
2022-08-27T10:59:57.921Z,101451.00
2022-08-27T11:05:07.441Z,101449.69
2022-08-27T11:10:21.036Z,101460.75
2022-08-27T11:15:28.810Z,101445.03
2022-08-27T11:20:54.175Z,101438.72
2022-08-27T11:26:02.695Z,101439.28
2022-08-27T11:31:31.850Z,101445.53
2022-08-27T11:36:54.259Z,101430.16
2022-08-27T11:41:59.292Z,101432.56
2022-08-27T11:47:27.961Z,101423.75
2022-08-27T11:52:35.235Z,101417.75
2022-08-27T11:57:37.640Z,101417.81
2022-08-27T12:02:39.551Z,101417.53
2022-08-27T12:07:44.947Z,101417.72
2022-08-27T12:13:21.180Z,101415.13
2022-08-27T12:19:00.064Z,101415.56
2022-08-27T12:24:23.587Z,101412.91
2022-08-27T12:29:43.937Z,101419.44
2022-08-27T12:34:59.531Z,101410.94
2022-08-27T12:40:07.072Z,101410.06
2022-08-27T12:45:17.835Z,101419.22
2022-08-27T12:50:23.961Z,101416.56
2022-08-27T12:55:49.568Z,101402.34
2022-08-27T13:01:11.125Z,101414.38
2022-08-27T13:06:36.796Z,101414.72
2022-08-27T13:11:55.656Z,101411.66
2022-08-27T13:17:02.885Z,101402.81
2022-08-27T13:22:07.065Z,101403.28
2022-08-27T13:27:08.578Z,101400.44
2022-08-27T13:32:14.217Z,101395.34
2022-08-27T13:37:26.242Z,101399.97
2022-08-27T13:42:28.502Z,101400.06
2022-08-27T13:47:43.074Z,101396.50
2022-08-27T13:53:23.197Z,101396.56
2022-08-27T13:58:28.993Z,101408.19
2022-08-27T14:03:36.494Z,101399.75
2022-08-27T14:08:39.958Z,101408.81
2022-08-27T14:13:45.909Z,101403.59
2022-08-27T14:19:02.442Z,101404.31
2022-08-27T14:24:04.597Z,101408.91
2022-08-27T14:29:12.529Z,101409.19
2022-08-27T14:34:15.670Z,101402.84
2022-08-27T14:39:17.434Z,101409.81
2022-08-27T14:44:22.320Z,101414.72
2022-08-27T14:49:31.781Z,101419.13
2022-08-27T14:54:33.875Z,101413.00
2022-08-27T14:59:36.376Z,101412.97
2022-08-27T15:04:38.660Z,101414.88
2022-08-27T15:09:40.411Z,101416.97
2022-08-27T15:14:43.339Z,101418.97
2022-08-27T15:19:44.852Z,101423.50
2022-08-27T15:24:51.271Z,101429.81
2022-08-27T15:29:53.011Z,101426.88
2022-08-27T15:34:56.132Z,101437.88
2022-08-27T15:40:00.521Z,101431.94
2022-08-27T15:45:02.783Z,101433.44
2022-08-27T15:50:05.648Z,101427.06
2022-08-27T15:55:22.439Z,101426.56
2022-08-27T16:00:24.742Z,101439.16
2022-08-27T16:05:28.536Z,101429.31
2022-08-27T16:10:30.058Z,101438.13
2022-08-27T16:15:34.091Z,101433.84
2022-08-27T16:20:36.845Z,101442.41
2022-08-27T16:25:38.362Z,101433.78
2022-08-27T16:30:41.018Z,101431.09
2022-08-27T16:35:42.614Z,101428.59
2022-08-27T16:40:50.982Z,101435.38
2022-08-27T16:45:54.859Z,101431.84
2022-08-27T16:50:58.579Z,101436.53
2022-08-27T16:56:00.542Z,101439.66
2022-08-27T17:01:08.537Z,101439.38
2022-08-27T17:06:10.711Z,101443.66
2022-08-27T17:11:19.075Z,101454.50
2022-08-27T17:16:24.753Z,101450.38
2022-08-27T17:21:30.024Z,101451.94
2022-08-27T17:26:33.725Z,101453.31
2022-08-27T17:31:38.366Z,101462.63
2022-08-27T17:36:39.898Z,101455.78
2022-08-27T17:41:48.708Z,101461.69
2022-08-27T17:46:52.484Z,101462.88
2022-08-27T17:52:00.305Z,101467.44
2022-08-27T17:57:04.277Z,101485.66
2022-08-27T18:02:05.713Z,101494.44
2022-08-27T18:07:07.374Z,101495.09
2022-08-27T18:12:12.898Z,101496.19
2022-08-27T18:17:14.492Z,101501.94
2022-08-27T18:22:16.193Z,101499.75
2022-08-27T18:27:18.162Z,101499.13
2022-08-27T18:32:19.655Z,101499.06
2022-08-27T18:37:21.284Z,101513.13
2022-08-27T18:42:22.935Z,101511.31
2022-08-27T18:47:24.459Z,101515.31
2022-08-27T18:52:26.353Z,101516.03
2022-08-27T18:57:27.850Z,101525.84
2022-08-27T19:02:29.586Z,101522.41
2022-08-27T19:07:32.141Z,101524.94
2022-08-27T19:12:33.959Z,101529.28
2022-08-27T19:17:40.173Z,101544.34
2022-08-27T19:22:41.694Z,101537.59
2022-08-27T19:27:44.949Z,101540.50
2022-08-27T19:32:46.535Z,101540.84
2022-08-27T19:37:52.697Z,101547.63
2022-08-27T19:42:54.989Z,101551.28
2022-08-27T19:47:56.795Z,101556.41
2022-08-27T19:52:58.355Z,101562.03
2022-08-27T19:57:59.986Z,101565.88
2022-08-27T20:03:01.723Z,101558.47
2022-08-27T20:08:04.816Z,101569.50
2022-08-27T20:13:07.936Z,101572.47
2022-08-27T20:18:10.000Z,101562.97
2022-08-27T20:23:11.838Z,101562.84
2022-08-27T20:28:37.749Z,101573.00
2022-08-27T20:33:35.304Z,101566.44
2022-08-27T20:38:37.117Z,101567.97
2022-08-27T20:43:38.754Z,101574.00
2022-08-27T20:48:40.357Z,101568.00
2022-08-27T20:53:41.880Z,101572.72
2022-08-27T20:59:02.199Z,101571.09
2022-08-27T21:04:04.303Z,101574.44
2022-08-27T21:09:06.104Z,101570.31
2022-08-27T21:14:07.764Z,101575.16
2022-08-27T21:19:09.777Z,101570.72
2022-08-27T21:24:11.471Z,101576.06
2022-08-27T21:29:14.727Z,101569.38
2022-08-27T21:34:16.266Z,101564.31
2022-08-27T21:39:18.056Z,101562.69
2022-08-27T21:44:19.596Z,101564.06
2022-08-27T21:49:21.177Z,101574.75
2022-08-27T21:54:23.477Z,101572.97
2022-08-27T21:59:27.752Z,101573.44
2022-08-27T22:04:31.615Z,101580.91
2022-08-27T22:09:33.746Z,101588.34
2022-08-27T22:14:36.808Z,101583.16
2022-08-27T22:19:38.331Z,101590.75
2022-08-27T22:24:39.842Z,101590.06
2022-08-27T22:29:41.455Z,101589.44
2022-08-27T22:34:42.986Z,101592.44
2022-08-27T22:39:44.529Z,101588.25
2022-08-27T22:44:46.426Z,101586.63
2022-08-27T22:49:48.162Z,101600.06
2022-08-27T22:54:55.023Z,101595.09
2022-08-27T22:59:58.209Z,101586.31
2022-08-27T23:05:01.510Z,101590.78
2022-08-27T23:10:08.908Z,101584.78
2022-08-27T23:15:11.489Z,101596.25
2022-08-27T23:20:14.460Z,101583.25
2022-08-27T23:25:36.128Z,101590.53
2022-08-27T23:30:38.165Z,101591.00
2022-08-27T23:35:41.205Z,101584.16
2022-08-27T23:40:43.245Z,101579.75
2022-08-27T23:45:45.262Z,101584.38
2022-08-27T23:50:46.834Z,101575.78
2022-08-27T23:55:48.363Z,101577.66
